sensor_id;sensor_type;location;lat;lon;timestamp;P1;durP1;ratioP1;P2;durP2;ratioP2
37895;SDS011;23733;53.254;10.430;2023-06-26T00:01:27;5.33;;;4.50;;
37895;SDS011;23733;53.254;10.430;2023-06-26T00:03:57;7.40;;;4.80;;
37895;SDS011;23733;53.254;10.430;2023-06-26T00:06:26;9.50;;;4.97;;
37895;SDS011;23733;53.254;10.430;2023-06-26T00:08:53;5.60;;;4.83;;
37895;SDS011;23733;53.254;10.430;2023-06-26T00:11:20;5.60;;;4.83;;
37895;SDS011;23733;53.254;10.430;2023-06-26T00:13:46;5.50;;;5.00;;
37895;SDS011;23733;53.254;10.430;2023-06-26T00:16:13;5.70;;;5.10;;
37895;SDS011;23733;53.254;10.430;2023-06-26T00:18:39;5.07;;;4.50;;
37895;SDS011;23733;53.254;10.430;2023-06-26T00:21:05;11.43;;;4.77;;
37895;SDS011;23733;53.254;10.430;2023-06-26T00:23:31;7.07;;;4.90;;
37895;SDS011;23733;53.254;10.430;2023-06-26T00:26:03;5.30;;;4.70;;
37895;SDS011;23733;53.254;10.430;2023-06-26T00:28:29;5.27;;;4.73;;
37895;SDS011;23733;53.254;10.430;2023-06-26T00:30:55;5.10;;;4.57;;
37895;SDS011;23733;53.254;10.430;2023-06-26T00:33:24;5.10;;;4.60;;
37895;SDS011;23733;53.254;10.430;2023-06-26T00:35:53;6.10;;;5.27;;
37895;SDS011;23733;53.254;10.430;2023-06-26T00:38:20;6.97;;;4.87;;
37895;SDS011;23733;53.254;10.430;2023-06-26T00:40:46;5.40;;;4.33;;
37895;SDS011;23733;53.254;10.430;2023-06-26T00:43:16;5.00;;;4.50;;
37895;SDS011;23733;53.254;10.430;2023-06-26T00:45:45;4.97;;;4.40;;
37895;SDS011;23733;53.254;10.430;2023-06-26T00:48:14;5.00;;;4.50;;
37895;SDS011;23733;53.254;10.430;2023-06-26T00:50:43;5.50;;;4.70;;
37895;SDS011;23733;53.254;10.430;2023-06-26T00:53:10;5.87;;;4.80;;
37895;SDS011;23733;53.254;10.430;2023-06-26T00:55:40;7.23;;;5.17;;
37895;SDS011;23733;53.254;10.430;2023-06-26T00:58:09;5.53;;;4.80;;
37895;SDS011;23733;53.254;10.430;2023-06-26T01:00:35;7.00;;;5.03;;
37895;SDS011;23733;53.254;10.430;2023-06-26T01:03:11;7.47;;;5.07;;
37895;SDS011;23733;53.254;10.430;2023-06-26T01:05:38;7.20;;;4.60;;
37895;SDS011;23733;53.254;10.430;2023-06-26T01:08:16;5.87;;;4.93;;
37895;SDS011;23733;53.254;10.430;2023-06-26T01:10:43;5.63;;;4.83;;
37895;SDS011;23733;53.254;10.430;2023-06-26T01:13:11;5.70;;;4.77;;
37895;SDS011;23733;53.254;10.430;2023-06-26T01:15:38;5.67;;;4.60;;
37895;SDS011;23733;53.254;10.430;2023-06-26T01:18:05;5.43;;;4.80;;
37895;SDS011;23733;53.254;10.430;2023-06-26T01:20:38;5.53;;;4.67;;
37895;SDS011;23733;53.254;10.430;2023-06-26T01:28:38;4.87;;;4.47;;
37895;SDS011;23733;53.254;10.430;2023-06-26T01:31:06;5.03;;;4.47;;
37895;SDS011;23733;53.254;10.430;2023-06-26T01:33:33;5.10;;;4.60;;
37895;SDS011;23733;53.254;10.430;2023-06-26T01:36:00;5.83;;;4.77;;
37895;SDS011;23733;53.254;10.430;2023-06-26T01:38:30;5.27;;;4.60;;
37895;SDS011;23733;53.254;10.430;2023-06-26T01:40:56;4.80;;;4.30;;
37895;SDS011;23733;53.254;10.430;2023-06-26T01:45:56;5.07;;;4.57;;
37895;SDS011;23733;53.254;10.430;2023-06-26T01:48:25;5.37;;;4.70;;
37895;SDS011;23733;53.254;10.430;2023-06-26T01:50:57;5.90;;;5.03;;
37895;SDS011;23733;53.254;10.430;2023-06-26T01:53:25;7.03;;;4.80;;
37895;SDS011;23733;53.254;10.430;2023-06-26T01:56:05;5.20;;;4.67;;
37895;SDS011;23733;53.254;10.430;2023-06-26T01:58:35;5.97;;;4.80;;
37895;SDS011;23733;53.254;10.430;2023-06-26T02:01:03;5.57;;;4.63;;
37895;SDS011;23733;53.254;10.430;2023-06-26T02:03:29;4.80;;;4.30;;
37895;SDS011;23733;53.254;10.430;2023-06-26T02:05:59;5.03;;;4.40;;
37895;SDS011;23733;53.254;10.430;2023-06-26T02:08:35;5.53;;;4.90;;
37895;SDS011;23733;53.254;10.430;2023-06-26T02:11:01;5.63;;;4.77;;
37895;SDS011;23733;53.254;10.430;2023-06-26T02:13:31;5.60;;;5.00;;
37895;SDS011;23733;53.254;10.430;2023-06-26T02:15:57;4.77;;;4.30;;
37895;SDS011;23733;53.254;10.430;2023-06-26T02:18:23;5.00;;;4.37;;
37895;SDS011;23733;53.254;10.430;2023-06-26T02:20:56;5.30;;;4.60;;
37895;SDS011;23733;53.254;10.430;2023-06-26T02:23:22;6.27;;;4.70;;
37895;SDS011;23733;53.254;10.430;2023-06-26T02:25:48;5.30;;;4.80;;
37895;SDS011;23733;53.254;10.430;2023-06-26T02:28:14;5.47;;;4.40;;
37895;SDS011;23733;53.254;10.430;2023-06-26T02:30:41;5.97;;;4.60;;
37895;SDS011;23733;53.254;10.430;2023-06-26T02:33:08;5.33;;;4.83;;
37895;SDS011;23733;53.254;10.430;2023-06-26T02:35:40;5.83;;;4.80;;
37895;SDS011;23733;53.254;10.430;2023-06-26T02:38:12;5.30;;;4.80;;
37895;SDS011;23733;53.254;10.430;2023-06-26T02:40:38;8.03;;;4.53;;
37895;SDS011;23733;53.254;10.430;2023-06-26T02:43:04;5.53;;;4.73;;
37895;SDS011;23733;53.254;10.430;2023-06-26T02:45:31;5.37;;;4.80;;
37895;SDS011;23733;53.254;10.430;2023-06-26T02:47:57;5.93;;;4.63;;
37895;SDS011;23733;53.254;10.430;2023-06-26T02:50:26;5.30;;;4.80;;
37895;SDS011;23733;53.254;10.430;2023-06-26T02:52:52;5.30;;;4.80;;
37895;SDS011;23733;53.254;10.430;2023-06-26T02:55:19;7.40;;;5.03;;
37895;SDS011;23733;53.254;10.430;2023-06-26T02:57:48;7.43;;;4.90;;
37895;SDS011;23733;53.254;10.430;2023-06-26T03:00:14;5.90;;;4.93;;
37895;SDS011;23733;53.254;10.430;2023-06-26T03:02:44;5.10;;;4.50;;
37895;SDS011;23733;53.254;10.430;2023-06-26T03:05:16;6.77;;;5.00;;
37895;SDS011;23733;53.254;10.430;2023-06-26T03:07:42;5.60;;;5.00;;
37895;SDS011;23733;53.254;10.430;2023-06-26T03:10:08;6.40;;;5.00;;
37895;SDS011;23733;53.254;10.430;2023-06-26T03:12:40;8.83;;;4.87;;
37895;SDS011;23733;53.254;10.430;2023-06-26T03:15:22;5.83;;;4.63;;
37895;SDS011;23733;53.254;10.430;2023-06-26T03:17:51;5.20;;;4.70;;
37895;SDS011;23733;53.254;10.430;2023-06-26T03:20:20;5.30;;;4.80;;
37895;SDS011;23733;53.254;10.430;2023-06-26T03:22:52;6.03;;;4.90;;
37895;SDS011;23733;53.254;10.430;2023-06-26T03:25:19;5.80;;;5.20;;
37895;SDS011;23733;53.254;10.430;2023-06-26T03:27:45;6.93;;;4.93;;
37895;SDS011;23733;53.254;10.430;2023-06-26T03:30:15;5.57;;;4.93;;
37895;SDS011;23733;53.254;10.430;2023-06-26T03:32:41;7.83;;;5.33;;
37895;SDS011;23733;53.254;10.430;2023-06-26T03:35:08;6.43;;;4.87;;
37895;SDS011;23733;53.254;10.430;2023-06-26T03:37:34;6.70;;;5.33;;
37895;SDS011;23733;53.254;10.430;2023-06-26T03:40:08;6.87;;;5.00;;
37895;SDS011;23733;53.254;10.430;2023-06-26T03:42:35;7.80;;;4.87;;
37895;SDS011;23733;53.254;10.430;2023-06-26T03:45:08;7.07;;;5.23;;
37895;SDS011;23733;53.254;10.430;2023-06-26T03:47:44;5.93;;;4.90;;
37895;SDS011;23733;53.254;10.430;2023-06-26T03:50:12;5.37;;;4.87;;
37895;SDS011;23733;53.254;10.430;2023-06-26T03:52:39;5.57;;;4.97;;
37895;SDS011;23733;53.254;10.430;2023-06-26T03:55:08;4.90;;;4.37;;
37895;SDS011;23733;53.254;10.430;2023-06-26T03:57:34;5.70;;;4.73;;
37895;SDS011;23733;53.254;10.430;2023-06-26T04:00:07;7.87;;;5.13;;
37895;SDS011;23733;53.254;10.430;2023-06-26T04:02:34;6.77;;;4.80;;
37895;SDS011;23733;53.254;10.430;2023-06-26T04:05:03;6.30;;;5.20;;
37895;SDS011;23733;53.254;10.430;2023-06-26T04:07:30;6.00;;;4.77;;
37895;SDS011;23733;53.254;10.430;2023-06-26T04:09:57;5.93;;;4.83;;
37895;SDS011;23733;53.254;10.430;2023-06-26T04:12:23;6.97;;;4.83;;
37895;SDS011;23733;53.254;10.430;2023-06-26T04:14:49;5.97;;;4.80;;
37895;SDS011;23733;53.254;10.430;2023-06-26T04:17:16;5.10;;;4.60;;
37895;SDS011;23733;53.254;10.430;2023-06-26T04:19:42;5.53;;;4.73;;
37895;SDS011;23733;53.254;10.430;2023-06-26T04:22:08;6.20;;;5.03;;
37895;SDS011;23733;53.254;10.430;2023-06-26T04:24:35;7.23;;;5.17;;
37895;SDS011;23733;53.254;10.430;2023-06-26T04:27:04;7.17;;;5.10;;
37895;SDS011;23733;53.254;10.430;2023-06-26T04:29:31;6.20;;;4.87;;
37895;SDS011;23733;53.254;10.430;2023-06-26T04:31:57;6.37;;;4.93;;
37895;SDS011;23733;53.254;10.430;2023-06-26T04:34:27;5.67;;;4.70;;
37895;SDS011;23733;53.254;10.430;2023-06-26T04:36:53;6.00;;;4.90;;
37895;SDS011;23733;53.254;10.430;2023-06-26T04:39:20;9.23;;;5.50;;
37895;SDS011;23733;53.254;10.430;2023-06-26T04:41:49;5.63;;;4.70;;
37895;SDS011;23733;53.254;10.430;2023-06-26T04:44:18;6.53;;;5.07;;
37895;SDS011;23733;53.254;10.430;2023-06-26T04:46:45;6.83;;;4.50;;
37895;SDS011;23733;53.254;10.430;2023-06-26T04:49:11;7.53;;;4.70;;
37895;SDS011;23733;53.254;10.430;2023-06-26T04:51:37;6.40;;;5.20;;
37895;SDS011;23733;53.254;10.430;2023-06-26T04:54:07;4.93;;;4.43;;
37895;SDS011;23733;53.254;10.430;2023-06-26T04:56:34;7.43;;;4.50;;
37895;SDS011;23733;53.254;10.430;2023-06-26T04:59:07;5.70;;;5.10;;
37895;SDS011;23733;53.254;10.430;2023-06-26T05:01:38;6.17;;;4.80;;
37895;SDS011;23733;53.254;10.430;2023-06-26T05:04:13;6.93;;;4.80;;
37895;SDS011;23733;53.254;10.430;2023-06-26T05:06:39;6.07;;;4.63;;
37895;SDS011;23733;53.254;10.430;2023-06-26T05:09:05;6.03;;;4.93;;
37895;SDS011;23733;53.254;10.430;2023-06-26T05:11:32;5.03;;;4.53;;
37895;SDS011;23733;53.254;10.430;2023-06-26T05:14:04;6.53;;;4.87;;
37895;SDS011;23733;53.254;10.430;2023-06-26T05:16:35;5.53;;;4.57;;
37895;SDS011;23733;53.254;10.430;2023-06-26T05:28:32;8.57;;;4.80;;
37895;SDS011;23733;53.254;10.430;2023-06-26T05:34:10;4.60;;;4.00;;
37895;SDS011;23733;53.254;10.430;2023-06-26T05:36:37;5.60;;;4.00;;
37895;SDS011;23733;53.254;10.430;2023-06-26T05:39:04;6.17;;;4.23;;
37895;SDS011;23733;53.254;10.430;2023-06-26T05:41:31;9.53;;;3.93;;
37895;SDS011;23733;53.254;10.430;2023-06-26T05:43:57;5.57;;;4.07;;
37895;SDS011;23733;53.254;10.430;2023-06-26T05:46:23;5.93;;;4.17;;
37895;SDS011;23733;53.254;10.430;2023-06-26T05:48:50;7.13;;;4.17;;
37895;SDS011;23733;53.254;10.430;2023-06-26T05:51:16;7.13;;;4.30;;
37895;SDS011;23733;53.254;10.430;2023-06-26T05:53:43;4.67;;;3.93;;
37895;SDS011;23733;53.254;10.430;2023-06-26T05:56:09;7.20;;;4.33;;
37895;SDS011;23733;53.254;10.430;2023-06-26T05:58:36;5.90;;;4.27;;
37895;SDS011;23733;53.254;10.430;2023-06-26T06:01:02;10.17;;;4.47;;
37895;SDS011;23733;53.254;10.430;2023-06-26T06:03:28;5.83;;;4.37;;
37895;SDS011;23733;53.254;10.430;2023-06-26T06:05:54;5.90;;;4.20;;
37895;SDS011;23733;53.254;10.430;2023-06-26T06:08:21;5.50;;;4.30;;
37895;SDS011;23733;53.254;10.430;2023-06-26T06:10:47;6.37;;;4.30;;
37895;SDS011;23733;53.254;10.430;2023-06-26T06:13:13;6.10;;;4.60;;
37895;SDS011;23733;53.254;10.430;2023-06-26T06:15:40;7.07;;;4.50;;
37895;SDS011;23733;53.254;10.430;2023-06-26T06:18:06;6.37;;;4.50;;
37895;SDS011;23733;53.254;10.430;2023-06-26T06:20:32;6.83;;;4.40;;
37895;SDS011;23733;53.254;10.430;2023-06-26T06:22:59;5.20;;;4.37;;
37895;SDS011;23733;53.254;10.430;2023-06-26T06:25:25;5.20;;;4.13;;
37895;SDS011;23733;53.254;10.430;2023-06-26T06:27:51;5.97;;;4.23;;
37895;SDS011;23733;53.254;10.430;2023-06-26T06:30:17;6.03;;;4.03;;
37895;SDS011;23733;53.254;10.430;2023-06-26T06:32:43;6.50;;;4.00;;
37895;SDS011;23733;53.254;10.430;2023-06-26T06:35:09;6.23;;;4.10;;
37895;SDS011;23733;53.254;10.430;2023-06-26T06:37:36;7.50;;;3.50;;
37895;SDS011;23733;53.254;10.430;2023-06-26T06:40:04;5.40;;;3.93;;
37895;SDS011;23733;53.254;10.430;2023-06-26T06:42:31;5.88;;;3.70;;
37895;SDS011;23733;53.254;10.430;2023-06-26T06:44:58;6.80;;;4.30;;
37895;SDS011;23733;53.254;10.430;2023-06-26T06:47:25;4.57;;;3.83;;
37895;SDS011;23733;53.254;10.430;2023-06-26T06:49:51;4.68;;;4.10;;
37895;SDS011;23733;53.254;10.430;2023-06-26T06:52:17;4.53;;;4.13;;
37895;SDS011;23733;53.254;10.430;2023-06-26T06:54:53;5.40;;;3.78;;
37895;SDS011;23733;53.254;10.430;2023-06-26T06:57:20;9.02;;;4.15;;
37895;SDS011;23733;53.254;10.430;2023-06-26T06:59:47;6.97;;;4.00;;
37895;SDS011;23733;53.254;10.430;2023-06-26T07:02:14;4.97;;;4.20;;
37895;SDS011;23733;53.254;10.430;2023-06-26T07:04:40;6.43;;;4.28;;
37895;SDS011;23733;53.254;10.430;2023-06-26T07:07:07;4.72;;;3.97;;
37895;SDS011;23733;53.254;10.430;2023-06-26T07:09:34;7.45;;;4.07;;
37895;SDS011;23733;53.254;10.430;2023-06-26T07:12:00;6.65;;;4.30;;
37895;SDS011;23733;53.254;10.430;2023-06-26T07:14:26;4.85;;;4.35;;
37895;SDS011;23733;53.254;10.430;2023-06-26T07:16:52;7.63;;;4.53;;
37895;SDS011;23733;53.254;10.430;2023-06-26T07:19:19;5.63;;;4.30;;
37895;SDS011;23733;53.254;10.430;2023-06-26T07:21:45;5.05;;;3.80;;
37895;SDS011;23733;53.254;10.430;2023-06-26T07:24:12;7.88;;;4.30;;
37895;SDS011;23733;53.254;10.430;2023-06-26T07:26:38;4.63;;;4.10;;
37895;SDS011;23733;53.254;10.430;2023-06-26T07:29:05;4.82;;;4.07;;
37895;SDS011;23733;53.254;10.430;2023-06-26T07:31:32;5.53;;;4.20;;
37895;SDS011;23733;53.254;10.430;2023-06-26T07:33:58;6.28;;;4.35;;
37895;SDS011;23733;53.254;10.430;2023-06-26T07:36:24;5.82;;;4.43;;
37895;SDS011;23733;53.254;10.430;2023-06-26T07:38:51;4.85;;;4.00;;
37895;SDS011;23733;53.254;10.430;2023-06-26T07:41:17;6.40;;;3.95;;
37895;SDS011;23733;53.254;10.430;2023-06-26T07:43:43;9.15;;;4.63;;
37895;SDS011;23733;53.254;10.430;2023-06-26T07:46:09;7.07;;;4.13;;
37895;SDS011;23733;53.254;10.430;2023-06-26T07:48:36;7.97;;;4.30;;
37895;SDS011;23733;53.254;10.430;2023-06-26T07:51:02;6.32;;;4.60;;
37895;SDS011;23733;53.254;10.430;2023-06-26T07:53:28;7.22;;;4.53;;
37895;SDS011;23733;53.254;10.430;2023-06-26T07:55:55;6.28;;;4.60;;
37895;SDS011;23733;53.254;10.430;2023-06-26T07:58:21;5.15;;;4.18;;
37895;SDS011;23733;53.254;10.430;2023-06-26T08:00:47;9.35;;;4.18;;
37895;SDS011;23733;53.254;10.430;2023-06-26T08:03:14;5.78;;;4.63;;
37895;SDS011;23733;53.254;10.430;2023-06-26T08:05:40;6.32;;;3.92;;
37895;SDS011;23733;53.254;10.430;2023-06-26T08:08:06;7.07;;;4.30;;
37895;SDS011;23733;53.254;10.430;2023-06-26T08:10:32;5.05;;;4.10;;
37895;SDS011;23733;53.254;10.430;2023-06-26T08:13:00;5.13;;;4.25;;
37895;SDS011;23733;53.254;10.430;2023-06-26T08:15:26;4.50;;;4.10;;
37895;SDS011;23733;53.254;10.430;2023-06-26T08:17:52;4.63;;;4.05;;
37895;SDS011;23733;53.254;10.430;2023-06-26T08:20:18;4.97;;;4.20;;
37895;SDS011;23733;53.254;10.430;2023-06-26T08:22:45;5.82;;;4.50;;
37895;SDS011;23733;53.254;10.430;2023-06-26T08:25:13;5.50;;;4.53;;
37895;SDS011;23733;53.254;10.430;2023-06-26T08:27:39;6.57;;;4.20;;
37895;SDS011;23733;53.254;10.430;2023-06-26T08:30:06;5.72;;;4.32;;
37895;SDS011;23733;53.254;10.430;2023-06-26T08:32:32;5.10;;;4.53;;
37895;SDS011;23733;53.254;10.430;2023-06-26T08:34:58;5.95;;;4.32;;
37895;SDS011;23733;53.254;10.430;2023-06-26T08:37:25;7.57;;;4.20;;
37895;SDS011;23733;53.254;10.430;2023-06-26T08:39:51;6.07;;;4.55;;
37895;SDS011;23733;53.254;10.430;2023-06-26T08:42:17;6.50;;;3.75;;
37895;SDS011;23733;53.254;10.430;2023-06-26T08:44:44;7.03;;;4.82;;
37895;SDS011;23733;53.254;10.430;2023-06-26T08:47:11;5.70;;;4.18;;
37895;SDS011;23733;53.254;10.430;2023-06-26T08:49:46;5.03;;;4.28;;
37895;SDS011;23733;53.254;10.430;2023-06-26T08:52:17;6.93;;;4.38;;
37895;SDS011;23733;53.254;10.430;2023-06-26T08:54:45;6.32;;;4.30;;
37895;SDS011;23733;53.254;10.430;2023-06-26T08:57:14;4.72;;;4.00;;
37895;SDS011;23733;53.254;10.430;2023-06-26T08:59:41;5.60;;;4.40;;
37895;SDS011;23733;53.254;10.430;2023-06-26T09:02:08;5.63;;;4.68;;
37895;SDS011;23733;53.254;10.430;2023-06-26T09:04:34;5.72;;;4.50;;
37895;SDS011;23733;53.254;10.430;2023-06-26T09:07:01;6.95;;;4.75;;
37895;SDS011;23733;53.254;10.430;2023-06-26T09:09:27;7.00;;;4.68;;
37895;SDS011;23733;53.254;10.430;2023-06-26T09:11:54;6.30;;;4.20;;
37895;SDS011;23733;53.254;10.430;2023-06-26T09:14:21;5.63;;;4.53;;
37895;SDS011;23733;53.254;10.430;2023-06-26T09:16:47;4.90;;;4.40;;
37895;SDS011;23733;53.254;10.430;2023-06-26T09:19:13;5.10;;;4.60;;
37895;SDS011;23733;53.254;10.430;2023-06-26T09:21:40;8.40;;;4.30;;
37895;SDS011;23733;53.254;10.430;2023-06-26T09:24:07;4.93;;;4.43;;
37895;SDS011;23733;53.254;10.430;2023-06-26T09:26:37;5.57;;;4.50;;
37895;SDS011;23733;53.254;10.430;2023-06-26T09:29:04;6.45;;;4.78;;
37895;SDS011;23733;53.254;10.430;2023-06-26T09:31:32;5.95;;;4.55;;
37895;SDS011;23733;53.254;10.430;2023-06-26T09:33:59;5.53;;;4.30;;
37895;SDS011;23733;53.254;10.430;2023-06-26T09:36:27;6.60;;;4.70;;
37895;SDS011;23733;53.254;10.430;2023-06-26T09:38:54;5.25;;;4.38;;
37895;SDS011;23733;53.254;10.430;2023-06-26T09:41:20;8.60;;;4.07;;
37895;SDS011;23733;53.254;10.430;2023-06-26T09:43:47;4.95;;;4.00;;
37895;SDS011;23733;53.254;10.430;2023-06-26T09:46:23;7.40;;;4.22;;
37895;SDS011;23733;53.254;10.430;2023-06-26T09:48:57;9.65;;;4.82;;
37895;SDS011;23733;53.254;10.430;2023-06-26T09:51:24;8.80;;;4.60;;
37895;SDS011;23733;53.254;10.430;2023-06-26T09:53:50;5.53;;;4.18;;
37895;SDS011;23733;53.254;10.430;2023-06-26T09:56:17;9.10;;;4.30;;
37895;SDS011;23733;53.254;10.430;2023-06-26T09:58:43;8.02;;;4.82;;
37895;SDS011;23733;53.254;10.430;2023-06-26T10:01:10;8.35;;;4.80;;
37895;SDS011;23733;53.254;10.430;2023-06-26T10:03:36;7.53;;;5.25;;
37895;SDS011;23733;53.254;10.430;2023-06-26T10:06:02;9.48;;;5.07;;
37895;SDS011;23733;53.254;10.430;2023-06-26T10:08:30;8.85;;;5.18;;
37895;SDS011;23733;53.254;10.430;2023-06-26T10:10:56;10.00;;;5.18;;
37895;SDS011;23733;53.254;10.430;2023-06-26T10:13:25;9.52;;;5.43;;
37895;SDS011;23733;53.254;10.430;2023-06-26T10:15:53;17.58;;;5.40;;
37895;SDS011;23733;53.254;10.430;2023-06-26T10:18:21;24.85;;;5.40;;
37895;SDS011;23733;53.254;10.430;2023-06-26T10:20:49;8.98;;;5.63;;
37895;SDS011;23733;53.254;10.430;2023-06-26T10:23:17;6.35;;;5.05;;
37895;SDS011;23733;53.254;10.430;2023-06-26T10:25:45;6.50;;;4.97;;
37895;SDS011;23733;53.254;10.430;2023-06-26T10:28:13;10.35;;;5.70;;
37895;SDS011;23733;53.254;10.430;2023-06-26T10:30:42;7.35;;;5.63;;
37895;SDS011;23733;53.254;10.430;2023-06-26T10:33:11;7.80;;;5.50;;
37895;SDS011;23733;53.254;10.430;2023-06-26T10:35:42;10.52;;;6.20;;
37895;SDS011;23733;53.254;10.430;2023-06-26T10:38:09;9.48;;;5.90;;
37895;SDS011;23733;53.254;10.430;2023-06-26T10:40:42;8.07;;;5.88;;
37895;SDS011;23733;53.254;10.430;2023-06-26T10:43:11;7.95;;;5.80;;
37895;SDS011;23733;53.254;10.430;2023-06-26T10:45:45;8.77;;;5.90;;
37895;SDS011;23733;53.254;10.430;2023-06-26T10:48:15;14.15;;;5.78;;
37895;SDS011;23733;53.254;10.430;2023-06-26T10:50:41;17.05;;;4.07;;
37895;SDS011;23733;53.254;10.430;2023-06-26T10:53:08;8.07;;;3.85;;
37895;SDS011;23733;53.254;10.430;2023-06-26T10:55:37;7.45;;;3.90;;
37895;SDS011;23733;53.254;10.430;2023-06-26T10:58:03;8.77;;;3.75;;
37895;SDS011;23733;53.254;10.430;2023-06-26T11:00:29;10.97;;;3.00;;
37895;SDS011;23733;53.254;10.430;2023-06-26T11:02:56;7.17;;;2.93;;
37895;SDS011;23733;53.254;10.430;2023-06-26T11:05:25;6.03;;;3.23;;
37895;SDS011;23733;53.254;10.430;2023-06-26T11:11:07;6.20;;;3.23;;
37895;SDS011;23733;53.254;10.430;2023-06-26T11:13:33;5.17;;;3.10;;
37895;SDS011;23733;53.254;10.430;2023-06-26T11:16:01;8.43;;;3.40;;
37895;SDS011;23733;53.254;10.430;2023-06-26T11:18:27;5.13;;;3.20;;
37895;SDS011;23733;53.254;10.430;2023-06-26T11:20:53;6.10;;;3.43;;
37895;SDS011;23733;53.254;10.430;2023-06-26T11:23:21;5.47;;;3.50;;
37895;SDS011;23733;53.254;10.430;2023-06-26T11:25:49;5.73;;;3.93;;
37895;SDS011;23733;53.254;10.430;2023-06-26T11:28:15;6.17;;;4.17;;
37895;SDS011;23733;53.254;10.430;2023-06-26T11:30:41;9.10;;;5.17;;
37895;SDS011;23733;53.254;10.430;2023-06-26T11:33:08;5.93;;;4.30;;
37895;SDS011;23733;53.254;10.430;2023-06-26T11:35:35;8.03;;;5.07;;
37895;SDS011;23733;53.254;10.430;2023-06-26T11:38:03;7.93;;;5.23;;
37895;SDS011;23733;53.254;10.430;2023-06-26T11:40:35;9.70;;;6.10;;
37895;SDS011;23733;53.254;10.430;2023-06-26T11:43:02;6.60;;;5.20;;
37895;SDS011;23733;53.254;10.430;2023-06-26T11:45:29;7.97;;;5.83;;
37895;SDS011;23733;53.254;10.430;2023-06-26T11:47:56;10.23;;;5.53;;
37895;SDS011;23733;53.254;10.430;2023-06-26T11:50:23;9.80;;;5.57;;
37895;SDS011;23733;53.254;10.430;2023-06-26T11:52:53;9.47;;;5.57;;
37895;SDS011;23733;53.254;10.430;2023-06-26T11:55:20;9.27;;;5.17;;
37895;SDS011;23733;53.254;10.430;2023-06-26T11:57:50;10.40;;;5.33;;
37895;SDS011;23733;53.254;10.430;2023-06-26T12:00:16;7.83;;;5.57;;
37895;SDS011;23733;53.254;10.430;2023-06-26T12:02:44;7.47;;;5.40;;
37895;SDS011;23733;53.254;10.430;2023-06-26T12:05:11;8.90;;;5.03;;
37895;SDS011;23733;53.254;10.430;2023-06-26T12:07:37;8.07;;;5.17;;
37895;SDS011;23733;53.254;10.430;2023-06-26T12:10:04;7.30;;;4.83;;
37895;SDS011;23733;53.254;10.430;2023-06-26T12:12:31;11.37;;;4.47;;
37895;SDS011;23733;53.254;10.430;2023-06-26T12:14:58;6.93;;;4.37;;
37895;SDS011;23733;53.254;10.430;2023-06-26T12:17:26;6.60;;;3.83;;
37895;SDS011;23733;53.254;10.430;2023-06-26T12:19:52;9.87;;;3.77;;
37895;SDS011;23733;53.254;10.430;2023-06-26T12:22:19;6.17;;;3.60;;
37895;SDS011;23733;53.254;10.430;2023-06-26T12:24:46;12.23;;;4.00;;
37895;SDS011;23733;53.254;10.430;2023-06-26T12:27:13;8.17;;;3.40;;
37895;SDS011;23733;53.254;10.430;2023-06-26T12:29:41;7.37;;;3.03;;
37895;SDS011;23733;53.254;10.430;2023-06-26T12:32:08;7.37;;;3.50;;
37895;SDS011;23733;53.254;10.430;2023-06-26T12:34:38;5.57;;;3.07;;
37895;SDS011;23733;53.254;10.430;2023-06-26T12:37:05;8.83;;;3.43;;
37895;SDS011;23733;53.254;10.430;2023-06-26T12:39:48;8.20;;;3.40;;
37895;SDS011;23733;53.254;10.430;2023-06-26T12:42:17;7.30;;;2.90;;
37895;SDS011;23733;53.254;10.430;2023-06-26T12:44:44;5.27;;;2.60;;
37895;SDS011;23733;53.254;10.430;2023-06-26T12:47:10;4.77;;;2.47;;
37895;SDS011;23733;53.254;10.430;2023-06-26T12:49:43;7.73;;;2.80;;
37895;SDS011;23733;53.254;10.430;2023-06-26T12:52:10;7.00;;;2.60;;
37895;SDS011;23733;53.254;10.430;2023-06-26T12:54:38;5.50;;;2.40;;
37895;SDS011;23733;53.254;10.430;2023-06-26T12:57:05;2.90;;;1.87;;
37895;SDS011;23733;53.254;10.430;2023-06-26T12:59:32;3.77;;;2.00;;
37895;SDS011;23733;53.254;10.430;2023-06-26T13:01:59;6.80;;;2.23;;
37895;SDS011;23733;53.254;10.430;2023-06-26T13:04:25;6.27;;;2.20;;
37895;SDS011;23733;53.254;10.430;2023-06-26T13:06:52;4.37;;;1.90;;
37895;SDS011;23733;53.254;10.430;2023-06-26T13:09:20;4.03;;;1.60;;
37895;SDS011;23733;53.254;10.430;2023-06-26T13:11:47;4.63;;;1.70;;
37895;SDS011;23733;53.254;10.430;2023-06-26T13:14:13;5.87;;;1.90;;
37895;SDS011;23733;53.254;10.430;2023-06-26T13:16:40;4.80;;;2.07;;
37895;SDS011;23733;53.254;10.430;2023-06-26T13:19:06;5.83;;;1.80;;
37895;SDS011;23733;53.254;10.430;2023-06-26T13:21:33;4.63;;;1.90;;
37895;SDS011;23733;53.254;10.430;2023-06-26T13:23:59;6.70;;;2.23;;
37895;SDS011;23733;53.254;10.430;2023-06-26T13:26:26;5.83;;;1.80;;
37895;SDS011;23733;53.254;10.430;2023-06-26T13:28:54;4.30;;;1.57;;
37895;SDS011;23733;53.254;10.430;2023-06-26T13:31:20;5.70;;;1.83;;
37895;SDS011;23733;53.254;10.430;2023-06-26T13:33:47;4.10;;;1.70;;
37895;SDS011;23733;53.254;10.430;2023-06-26T13:36:20;6.93;;;1.97;;
37895;SDS011;23733;53.254;10.430;2023-06-26T13:38:46;5.83;;;1.83;;
37895;SDS011;23733;53.254;10.430;2023-06-26T13:41:15;6.30;;;1.93;;
37895;SDS011;23733;53.254;10.430;2023-06-26T13:43:41;4.57;;;1.93;;
37895;SDS011;23733;53.254;10.430;2023-06-26T13:46:08;5.13;;;2.00;;
37895;SDS011;23733;53.254;10.430;2023-06-26T13:48:34;4.33;;;1.93;;
37895;SDS011;23733;53.254;10.430;2023-06-26T13:51:00;3.17;;;1.47;;
37895;SDS011;23733;53.254;10.430;2023-06-26T13:53:27;7.97;;;1.93;;
37895;SDS011;23733;53.254;10.430;2023-06-26T13:55:53;8.03;;;1.80;;
37895;SDS011;23733;53.254;10.430;2023-06-26T13:58:19;9.07;;;2.17;;
37895;SDS011;23733;53.254;10.430;2023-06-26T14:00:49;6.33;;;2.17;;
37895;SDS011;23733;53.254;10.430;2023-06-26T14:03:16;6.30;;;1.83;;
37895;SDS011;23733;53.254;10.430;2023-06-26T14:05:43;6.63;;;2.07;;
37895;SDS011;23733;53.254;10.430;2023-06-26T14:08:09;5.13;;;1.83;;
37895;SDS011;23733;53.254;10.430;2023-06-26T14:10:36;5.87;;;2.00;;
37895;SDS011;23733;53.254;10.430;2023-06-26T14:13:03;8.77;;;2.40;;
37895;SDS011;23733;53.254;10.430;2023-06-26T14:15:30;4.23;;;1.60;;
37895;SDS011;23733;53.254;10.430;2023-06-26T14:17:56;7.63;;;2.50;;
37895;SDS011;23733;53.254;10.430;2023-06-26T14:20:22;4.60;;;1.80;;
37895;SDS011;23733;53.254;10.430;2023-06-26T14:22:48;5.33;;;1.77;;
37895;SDS011;23733;53.254;10.430;2023-06-26T14:25:15;6.13;;;1.87;;
37895;SDS011;23733;53.254;10.430;2023-06-26T14:27:42;4.23;;;1.80;;
37895;SDS011;23733;53.254;10.430;2023-06-26T14:30:08;5.33;;;1.90;;
37895;SDS011;23733;53.254;10.430;2023-06-26T14:32:35;6.20;;;1.67;;
37895;SDS011;23733;53.254;10.430;2023-06-26T14:35:01;4.53;;;1.97;;
37895;SDS011;23733;53.254;10.430;2023-06-26T14:37:28;5.77;;;1.83;;
37895;SDS011;23733;53.254;10.430;2023-06-26T14:39:55;7.17;;;2.03;;
37895;SDS011;23733;53.254;10.430;2023-06-26T14:42:21;4.30;;;1.80;;
37895;SDS011;23733;53.254;10.430;2023-06-26T14:44:48;4.13;;;1.83;;
37895;SDS011;23733;53.254;10.430;2023-06-26T14:47:16;5.70;;;1.60;;
37895;SDS011;23733;53.254;10.430;2023-06-26T14:49:42;4.07;;;1.70;;
37895;SDS011;23733;53.254;10.430;2023-06-26T14:52:08;4.30;;;1.90;;
37895;SDS011;23733;53.254;10.430;2023-06-26T14:54:35;5.50;;;1.77;;
37895;SDS011;23733;53.254;10.430;2023-06-26T14:57:04;4.67;;;1.80;;
37895;SDS011;23733;53.254;10.430;2023-06-26T14:59:31;2.70;;;1.60;;